createdAt,value
2019-01-04T00:01:15.690Z,15.73
2019-01-04T00:03:57.866Z,16.07
2019-01-04T00:06:39.686Z,16.07
2019-01-04T00:09:21.485Z,16.33
2019-01-04T00:12:03.451Z,16.23
2019-01-04T00:14:34.949Z,16.30
2019-01-04T00:17:16.969Z,15.93
2019-01-04T00:19:58.719Z,15.60
2019-01-04T00:22:40.668Z,17.53
2019-01-04T00:25:23.617Z,15.93
2019-01-04T00:28:05.780Z,16.80
2019-01-04T00:30:36.059Z,16.93
2019-01-04T00:33:18.056Z,16.73
2019-01-04T00:36:00.142Z,15.90
2019-01-04T00:38:42.076Z,18.63
2019-01-04T00:41:24.153Z,17.63
2019-01-04T00:44:05.979Z,18.43
2019-01-04T00:46:36.217Z,17.57
2019-01-04T00:49:17.638Z,17.70
2019-01-04T00:51:59.426Z,18.57
2019-01-04T00:54:41.498Z,18.30
2019-01-04T00:57:23.351Z,19.40
2019-01-04T01:00:05.714Z,19.87
2019-01-04T01:03:15.734Z,20.50
2019-01-04T01:05:57.821Z,20.67
2019-01-04T01:08:39.835Z,21.53
2019-01-04T01:11:21.970Z,22.20
2019-01-04T01:14:04.052Z,21.67
2019-01-04T01:16:46.252Z,21.40
2019-01-04T01:19:28.263Z,22.43
2019-01-04T01:22:10.414Z,23.93
2019-01-04T01:25:18.772Z,23.63
2019-01-04T01:28:00.475Z,23.47
2019-01-04T01:30:42.383Z,23.83
2019-01-04T01:33:24.420Z,26.03
2019-01-04T01:36:06.315Z,24.67
2019-01-04T01:38:47.820Z,24.67
2019-01-04T01:41:56.139Z,24.63
2019-01-04T01:44:38.235Z,24.50
2019-01-04T01:47:20.614Z,27.17
2019-01-04T01:50:02.976Z,25.33
2019-01-04T01:52:44.887Z,26.17
2019-01-04T01:55:26.732Z,26.63
2019-01-04T01:58:08.879Z,25.13
2019-01-04T02:00:50.780Z,26.23
2019-01-04T02:03:32.930Z,26.20
2019-01-04T02:06:14.710Z,25.50
2019-01-04T02:08:56.514Z,27.97
2019-01-04T02:11:39.011Z,26.43
2019-01-04T02:14:21.107Z,27.87
2019-01-04T02:17:02.670Z,26.43
2019-01-04T02:19:44.590Z,26.93
2019-01-04T02:22:26.654Z,27.60
2019-01-04T02:25:08.782Z,27.07
2019-01-04T02:27:50.846Z,25.63
2019-01-04T02:30:33.093Z,25.83
2019-01-04T02:33:14.746Z,26.60
2019-01-04T02:35:56.637Z,25.90
2019-01-04T02:38:38.681Z,25.57
2019-01-04T02:41:20.991Z,26.60
2019-01-04T02:44:03.113Z,26.63
2019-01-04T02:46:44.988Z,28.70
2019-01-04T02:49:27.252Z,29.90
2019-01-04T02:52:09.143Z,33.03
2019-01-04T02:54:51.141Z,35.40
2019-01-04T02:57:32.902Z,36.00
2019-01-04T03:00:14.916Z,36.70
2019-01-04T03:02:57.046Z,36.17
2019-01-04T03:05:38.697Z,34.53
2019-01-04T03:08:20.839Z,35.43
2019-01-04T03:11:02.899Z,35.93
2019-01-04T03:13:45.083Z,34.20
2019-01-04T03:16:27.075Z,34.53
2019-01-04T03:19:08.959Z,36.83
2019-01-04T03:21:50.986Z,35.50
2019-01-04T03:24:32.909Z,36.47
2019-01-04T03:27:14.718Z,35.47
2019-01-04T03:29:56.462Z,35.73
2019-01-04T03:32:38.311Z,36.63
2019-01-04T03:35:20.307Z,36.17
2019-01-04T03:38:02.024Z,33.93
2019-01-04T03:40:43.780Z,35.20
2019-01-04T03:43:25.643Z,36.00
2019-01-04T03:46:07.406Z,35.80
2019-01-04T03:48:49.017Z,34.87
2019-01-04T03:51:31.119Z,33.67
2019-01-04T03:54:13.136Z,35.20
2019-01-04T03:56:55.364Z,36.43
2019-01-04T03:59:37.486Z,35.20
2019-01-04T04:02:19.101Z,35.57
2019-01-04T04:04:49.623Z,36.93
2019-01-04T04:07:31.181Z,36.03
2019-01-04T04:10:13.478Z,36.63
2019-01-04T04:12:54.945Z,36.20
2019-01-04T04:15:36.718Z,38.07
2019-01-04T04:18:18.497Z,37.47
2019-01-04T04:21:00.067Z,37.70
2019-01-04T04:23:42.014Z,37.57
2019-01-04T04:26:23.907Z,39.43
2019-01-04T04:29:05.702Z,39.83
2019-01-04T04:31:47.444Z,39.33
2019-01-04T04:34:29.217Z,39.73
2019-01-04T04:37:11.252Z,36.77
2019-01-04T04:39:53.255Z,37.10
2019-01-04T04:42:35.179Z,38.37
2019-01-04T04:45:16.905Z,38.77
2019-01-04T04:47:59.319Z,37.37
2019-01-04T04:50:41.240Z,39.33
2019-01-04T04:53:23.074Z,39.93
2019-01-04T04:56:04.663Z,39.33
2019-01-04T04:58:46.693Z,40.80
2019-01-04T05:01:28.861Z,39.67
2019-01-04T05:04:10.947Z,41.93
2019-01-04T05:06:53.180Z,41.23
2019-01-04T05:09:34.974Z,42.40
2019-01-04T05:12:17.062Z,44.13
2019-01-04T05:14:58.482Z,42.70
2019-01-04T05:17:28.759Z,43.50
2019-01-04T05:20:18.028Z,45.43
2019-01-04T05:22:48.263Z,44.70
2019-01-04T05:25:29.854Z,43.67
2019-01-04T05:28:11.846Z,45.10
2019-01-04T05:30:53.839Z,45.23
2019-01-04T05:33:36.147Z,46.20
2019-01-04T05:36:18.051Z,46.27
2019-01-04T05:38:59.994Z,45.10
2019-01-04T05:41:41.684Z,45.17
2019-01-04T05:44:23.646Z,47.90
2019-01-04T05:47:05.796Z,48.17
2019-01-04T05:49:48.030Z,47.17
2019-01-04T05:52:29.949Z,48.13
2019-01-04T05:55:00.347Z,47.97
2019-01-04T05:57:42.378Z,48.27
2019-01-04T06:00:24.602Z,48.57
2019-01-04T06:03:06.723Z,48.17
2019-01-04T06:05:48.327Z,50.73
2019-01-04T06:08:29.894Z,47.37
2019-01-04T06:11:11.858Z,47.17
2019-01-04T06:13:56.602Z,44.93
2019-01-04T06:16:26.976Z,45.40
2019-01-04T06:19:09.110Z,46.77
2019-01-04T06:21:53.919Z,42.27
2019-01-04T06:24:36.198Z,42.20
2019-01-04T06:27:18.378Z,40.07
2019-01-04T06:30:00.487Z,40.47
2019-01-04T06:32:42.682Z,36.50
2019-01-04T06:35:24.951Z,37.17
2019-01-04T06:38:06.379Z,31.77
2019-01-04T06:40:36.635Z,28.67
2019-01-04T06:43:06.874Z,28.73
2019-01-04T06:46:08.319Z,27.43
2019-01-04T06:48:50.338Z,26.40
2019-01-04T06:51:32.511Z,25.20
2019-01-04T06:54:14.464Z,23.97
2019-01-04T06:56:56.639Z,22.20
2019-01-04T06:59:38.823Z,22.40
2019-01-04T07:02:20.967Z,21.37
2019-01-04T07:05:03.837Z,20.90
2019-01-04T07:07:46.085Z,20.33
2019-01-04T07:10:28.176Z,20.70
2019-01-04T07:13:10.459Z,22.00
2019-01-04T07:15:52.309Z,21.77
2019-01-04T07:18:34.618Z,22.83
2019-01-04T07:21:16.693Z,22.40
2019-01-04T07:23:58.561Z,22.53
2019-01-04T07:26:40.848Z,23.57
2019-01-04T07:29:11.053Z,22.90
2019-01-04T07:31:54.612Z,24.43
2019-01-04T07:34:36.640Z,24.23
2019-01-04T07:37:18.791Z,24.23
2019-01-04T07:40:00.800Z,25.73
2019-01-04T07:42:42.934Z,24.23
2019-01-04T07:45:24.684Z,25.30
2019-01-04T07:48:07.142Z,26.20
2019-01-04T07:50:49.114Z,28.40
2019-01-04T07:53:31.145Z,27.87
2019-01-04T07:56:13.947Z,28.67
2019-01-04T07:58:55.918Z,36.13
2019-01-04T08:01:37.864Z,31.63
2019-01-04T08:04:19.574Z,31.10
2019-01-04T08:07:01.678Z,32.40
2019-01-04T08:09:43.531Z,33.83
2019-01-04T08:12:25.421Z,34.70
2019-01-04T08:15:07.202Z,34.43
2019-01-04T08:17:51.044Z,35.10
2019-01-04T08:20:33.326Z,36.10
2019-01-04T08:23:15.336Z,38.40
2019-01-04T08:25:57.539Z,37.53
2019-01-04T08:28:39.626Z,39.37
2019-01-04T08:31:21.825Z,40.37
2019-01-04T08:34:04.031Z,37.63
2019-01-04T08:36:46.038Z,36.23
2019-01-04T08:39:27.745Z,36.43
2019-01-04T08:42:10.008Z,36.73
2019-01-04T08:44:51.966Z,37.27
2019-01-04T08:47:34.054Z,34.77
2019-01-04T08:50:17.502Z,36.30
2019-01-04T08:53:00.014Z,34.07
2019-01-04T08:55:42.132Z,35.07
2019-01-04T08:58:23.993Z,33.20
2019-01-04T09:01:06.281Z,32.20
2019-01-04T09:03:48.297Z,33.60
2019-01-04T09:06:30.315Z,30.13
2019-01-04T09:09:14.022Z,31.23
2019-01-04T09:11:56.083Z,28.77
2019-01-04T09:14:38.141Z,27.97
2019-01-04T09:17:20.283Z,26.63
2019-01-04T09:20:02.402Z,26.37
2019-01-04T09:22:44.354Z,25.00
2019-01-04T09:25:26.715Z,23.53
2019-01-04T09:28:08.695Z,21.63
2019-01-04T09:30:50.580Z,19.93
2019-01-04T09:33:32.627Z,20.53
2019-01-04T09:36:15.383Z,19.10
2019-01-04T09:39:03.156Z,19.57
2019-01-04T09:41:41.030Z,20.80
2019-01-04T09:44:23.180Z,19.43
2019-01-04T09:47:05.402Z,20.10
2019-01-04T09:49:47.511Z,17.93
2019-01-04T09:52:29.086Z,18.37
2019-01-04T09:55:10.775Z,19.63
2019-01-04T09:57:54.491Z,19.33
2019-01-04T10:00:36.470Z,20.00
2019-01-04T10:03:18.520Z,19.10
2019-01-04T10:06:00.450Z,20.83
2019-01-04T10:08:44.990Z,18.70
2019-01-04T10:11:26.361Z,18.97
2019-01-04T10:14:08.130Z,19.60
2019-01-04T10:16:49.787Z,20.63
2019-01-04T10:19:31.908Z,19.63
2019-01-04T10:22:13.842Z,19.97
2019-01-04T10:24:55.929Z,21.70
2019-01-04T10:27:37.834Z,20.20
2019-01-04T10:30:19.367Z,19.90
2019-01-04T10:33:01.226Z,20.77
2019-01-04T10:35:43.254Z,21.43
2019-01-04T10:38:25.070Z,21.37
2019-01-04T10:41:07.150Z,21.07
2019-01-04T10:43:48.557Z,19.87
2019-01-04T10:46:30.650Z,20.47
2019-01-04T10:49:13.655Z,19.93
2019-01-04T10:51:55.106Z,20.80
2019-01-04T10:54:36.946Z,22.77
2019-01-04T10:57:19.009Z,21.70
2019-01-04T11:00:00.884Z,21.10
2019-01-04T11:02:43.152Z,22.20
2019-01-04T11:05:25.228Z,22.47
2019-01-04T11:08:07.294Z,21.93
2019-01-04T11:10:49.255Z,20.00
2019-01-04T11:13:31.452Z,19.50
2019-01-04T11:16:13.822Z,20.30
2019-01-04T11:18:55.808Z,19.50
2019-01-04T11:21:37.503Z,19.03
2019-01-04T11:24:19.702Z,17.83
2019-01-04T11:27:01.608Z,17.87
2019-01-04T11:29:43.613Z,18.23
2019-01-04T11:32:25.884Z,16.07
2019-01-04T11:35:08.230Z,18.20
2019-01-04T11:37:51.941Z,16.97
2019-01-04T11:40:34.259Z,16.23
2019-01-04T11:43:16.302Z,17.30
2019-01-04T11:45:58.385Z,17.30
2019-01-04T11:48:40.243Z,17.57
2019-01-04T11:51:22.265Z,17.80
2019-01-04T11:54:04.522Z,17.73
2019-01-04T11:56:34.821Z,17.43
2019-01-04T11:59:24.098Z,17.70
2019-01-04T12:02:06.027Z,18.77
2019-01-04T12:04:48.147Z,18.27
2019-01-04T12:07:30.103Z,19.00
2019-01-04T12:10:12.235Z,18.83
2019-01-04T12:12:53.868Z,18.10
2019-01-04T12:15:36.322Z,18.00
2019-01-04T12:18:18.614Z,19.87
2019-01-04T12:21:00.591Z,18.07
2019-01-04T12:23:42.610Z,18.50
2019-01-04T12:26:24.822Z,18.10
2019-01-04T12:29:07.077Z,19.57
2019-01-04T12:31:49.046Z,19.53
2019-01-04T12:34:30.942Z,19.43
2019-01-04T12:37:12.882Z,19.83
2019-01-04T12:39:54.604Z,20.37
2019-01-04T12:42:36.995Z,20.30
2019-01-04T12:45:19.019Z,20.77
2019-01-04T12:48:01.198Z,20.17
2019-01-04T12:50:43.015Z,19.47
2019-01-04T12:53:24.979Z,21.20
2019-01-04T12:56:06.988Z,20.27
2019-01-04T12:58:48.547Z,20.73
2019-01-04T13:01:31.045Z,20.20
2019-01-04T13:04:13.289Z,19.50
2019-01-04T13:06:55.146Z,17.43
2019-01-04T13:09:37.123Z,18.13
2019-01-04T13:12:19.154Z,17.40
2019-01-04T13:15:01.264Z,17.80
2019-01-04T13:17:43.290Z,19.23
2019-01-04T13:20:25.998Z,19.63
2019-01-04T13:23:08.270Z,19.13
2019-01-04T13:25:50.561Z,18.40
2019-01-04T13:28:33.094Z,19.20
2019-01-04T13:31:14.667Z,21.17
2019-01-04T13:33:56.755Z,21.03
2019-01-04T13:36:39.026Z,20.37
2019-01-04T13:39:21.158Z,20.83
2019-01-04T13:42:03.129Z,23.20
2019-01-04T13:44:45.382Z,23.73
2019-01-04T13:47:32.224Z,24.87
2019-01-04T13:50:11.389Z,24.67
2019-01-04T13:52:53.731Z,25.47
2019-01-04T13:55:35.715Z,25.97
2019-01-04T13:58:17.717Z,28.03
2019-01-04T14:00:59.609Z,28.97
2019-01-04T14:03:41.939Z,28.10
2019-01-04T14:06:12.230Z,30.70
2019-01-04T14:08:54.645Z,30.23
2019-01-04T14:11:37.076Z,30.83
2019-01-04T14:14:18.906Z,30.43
2019-01-04T14:17:01.144Z,30.37
2019-01-04T14:19:43.222Z,31.80
2019-01-04T14:22:25.372Z,32.87
2019-01-04T14:25:07.779Z,32.60
2019-01-04T14:27:49.559Z,33.47
2019-01-04T14:30:32.077Z,32.93
2019-01-04T14:33:13.751Z,32.73
2019-01-04T14:35:55.547Z,32.10
2019-01-04T14:38:37.974Z,32.77
2019-01-04T14:41:23.314Z,33.50
2019-01-04T14:44:03.410Z,34.20
2019-01-04T14:46:45.652Z,32.93
2019-01-04T14:49:27.582Z,33.20
2019-01-04T14:52:09.589Z,30.03
2019-01-04T14:54:51.991Z,30.33
2019-01-04T14:57:33.983Z,30.97
2019-01-04T15:00:15.982Z,33.70
2019-01-04T15:02:58.257Z,33.37
2019-01-04T15:05:40.619Z,33.30
2019-01-04T15:08:22.513Z,34.87
2019-01-04T15:11:04.871Z,34.13
2019-01-04T15:13:46.694Z,33.73
2019-01-04T15:16:28.253Z,35.53
2019-01-04T15:19:10.269Z,34.77
2019-01-04T15:21:52.071Z,35.40
2019-01-04T15:24:34.186Z,34.80
2019-01-04T15:27:16.220Z,35.87
2019-01-04T15:29:46.535Z,33.23
2019-01-04T15:32:28.495Z,35.53
2019-01-04T15:35:10.786Z,35.40
2019-01-04T15:37:52.975Z,35.50
2019-01-04T15:40:34.998Z,36.77
2019-01-04T15:43:16.806Z,36.57
2019-01-04T15:45:47.098Z,37.20
2019-01-04T15:48:36.443Z,39.03
2019-01-04T15:51:18.150Z,40.13
2019-01-04T15:53:48.404Z,42.13
2019-01-04T15:56:37.735Z,42.37
2019-01-04T15:59:20.058Z,42.30
2019-01-04T16:01:50.374Z,43.07
2019-01-04T16:04:39.635Z,44.97
2019-01-04T16:07:21.097Z,44.87
2019-01-04T16:10:03.482Z,45.87
2019-01-04T16:12:46.116Z,45.30
2019-01-04T16:15:27.659Z,45.43
2019-01-04T16:18:09.725Z,46.17
2019-01-04T16:20:51.718Z,43.93
2019-01-04T16:23:33.805Z,58.00
2019-01-04T16:26:16.061Z,49.10
2019-01-04T16:28:58.155Z,50.17
2019-01-04T16:31:40.267Z,46.40
2019-01-04T16:34:22.094Z,45.90
2019-01-04T16:37:03.551Z,45.63
2019-01-04T16:39:45.486Z,44.37
2019-01-04T16:42:27.532Z,44.67
2019-01-04T16:45:09.467Z,47.67
2019-01-04T16:47:51.536Z,42.77
2019-01-04T16:50:33.861Z,45.27
2019-01-04T16:53:15.998Z,44.37
2019-01-04T16:55:58.140Z,44.73
2019-01-04T16:58:40.341Z,45.93
2019-01-04T17:01:22.735Z,44.10
2019-01-04T17:04:04.963Z,46.27
2019-01-04T17:06:46.776Z,49.60
2019-01-04T17:09:28.899Z,48.00
2019-01-04T17:11:59.210Z,46.57
2019-01-04T17:14:41.147Z,46.50
2019-01-04T17:17:23.502Z,40.87
2019-01-04T17:20:05.391Z,39.63
2019-01-04T17:22:47.858Z,38.37
2019-01-04T17:25:29.952Z,39.03
2019-01-04T17:28:11.973Z,41.63
2019-01-04T17:30:56.416Z,40.50
2019-01-04T17:33:37.974Z,40.37
2019-01-04T17:36:20.251Z,41.23
2019-01-04T17:39:04.553Z,38.43
2019-01-04T17:41:47.380Z,41.40
2019-01-04T17:44:29.613Z,41.67
2019-01-04T17:47:11.667Z,42.20
2019-01-04T17:49:53.609Z,43.20
2019-01-04T17:52:36.352Z,40.57
2019-01-04T17:55:18.638Z,42.70
2019-01-04T17:58:06.337Z,42.03
2019-01-04T18:00:46.305Z,42.40
2019-01-04T18:03:28.366Z,40.93
2019-01-04T18:06:10.575Z,37.60
2019-01-04T18:08:52.787Z,40.00
2019-01-04T18:11:34.807Z,38.97
2019-01-04T18:14:05.184Z,39.07
2019-01-04T18:16:54.536Z,38.87
2019-01-04T18:19:36.778Z,38.13
2019-01-04T18:22:19.710Z,38.33
2019-01-04T18:25:01.907Z,36.63
2019-01-04T18:27:45.085Z,37.87
2019-01-04T18:30:27.329Z,38.33
2019-01-04T18:33:09.250Z,38.20
2019-01-04T18:35:51.431Z,37.90
2019-01-04T18:38:34.695Z,38.13
2019-01-04T18:41:16.166Z,39.97
2019-01-04T18:44:01.880Z,36.27
2019-01-04T18:46:43.641Z,37.37
2019-01-04T18:49:16.954Z,37.30
2019-01-04T18:52:06.855Z,39.80
2019-01-04T18:54:50.666Z,37.93
2019-01-04T18:57:34.240Z,38.87
2019-01-04T19:03:10.013Z,37.03
2019-01-04T19:05:52.102Z,38.57
2019-01-04T19:08:34.315Z,38.40
2019-01-04T19:11:17.587Z,37.43
2019-01-04T19:13:59.882Z,38.87
2019-01-04T19:19:32.457Z,38.13
2019-01-04T19:22:14.534Z,37.47
2019-01-04T19:24:56.591Z,37.73
2019-01-04T19:27:40.468Z,36.57
2019-01-04T19:30:22.562Z,38.30
2019-01-04T19:33:04.762Z,40.90
2019-01-04T19:35:46.279Z,39.37
2019-01-04T19:38:16.656Z,38.77
2019-01-04T19:40:58.471Z,37.27
2019-01-04T19:43:40.331Z,36.70
2019-01-04T19:46:22.655Z,36.70
2019-01-04T19:49:04.831Z,37.73
2019-01-04T19:51:47.102Z,39.30
2019-01-04T19:54:28.961Z,39.47
2019-01-04T19:57:13.163Z,39.47
2019-01-04T19:59:57.310Z,39.67
2019-01-04T20:02:39.594Z,38.13
2019-01-04T20:08:46.409Z,40.00
2019-01-04T20:11:47.591Z,41.43
2019-01-04T20:14:49.142Z,37.50
2019-01-04T20:17:51.360Z,39.93
2019-01-04T20:20:59.253Z,38.67
2019-01-04T20:24:03.823Z,41.83
2019-01-04T20:30:01.007Z,40.23
2019-01-04T20:33:01.608Z,40.43
2019-01-04T20:39:08.626Z,40.30
2019-01-04T20:42:09.600Z,40.83
2019-01-04T20:45:10.605Z,43.77
2019-01-04T20:48:11.596Z,41.07
2019-01-04T20:51:05.810Z,41.23
2019-01-04T20:54:09.840Z,41.00
2019-01-04T20:57:07.748Z,41.77
2019-01-04T21:00:09.606Z,41.57
2019-01-04T21:03:17.636Z,41.30
2019-01-04T21:06:32.850Z,40.93
2019-01-04T21:09:27.911Z,42.33
2019-01-04T21:15:18.522Z,41.17
2019-01-04T21:18:20.633Z,40.97
2019-01-04T21:21:21.742Z,42.13
2019-01-04T21:24:22.144Z,39.93
2019-01-04T21:27:26.239Z,40.33
2019-01-04T21:30:27.392Z,40.13
2019-01-04T21:33:28.424Z,40.63
2019-01-04T21:36:29.251Z,43.45
2019-01-04T21:39:30.335Z,42.73
2019-01-04T21:42:35.717Z,39.20
2019-01-04T21:45:36.310Z,38.63
2019-01-04T21:48:37.602Z,37.13
2019-01-04T21:51:39.095Z,38.90
2019-01-04T21:54:40.303Z,39.63
2019-01-04T21:57:43.874Z,40.17
2019-01-04T22:00:44.834Z,37.17
2019-01-04T22:03:46.025Z,37.87
2019-01-04T22:06:48.096Z,37.27
2019-01-04T22:09:49.070Z,39.00
2019-01-04T22:12:49.922Z,39.27
2019-01-04T22:15:50.696Z,38.67
2019-01-04T22:18:51.853Z,38.47
2019-01-04T22:21:52.141Z,37.57
2019-01-04T22:24:46.599Z,39.73
2019-01-04T22:27:42.679Z,39.30
2019-01-04T22:30:43.029Z,39.57
2019-01-04T22:33:43.992Z,37.73
2019-01-04T22:36:48.340Z,38.60
2019-01-04T22:39:52.167Z,39.43
2019-01-04T22:42:53.218Z,40.63
2019-01-04T22:45:54.266Z,39.97
2019-01-04T22:48:43.399Z,38.23
2019-01-04T22:51:43.933Z,40.83
2019-01-04T22:54:45.092Z,40.90
2019-01-04T22:57:46.334Z,37.90
2019-01-04T23:00:47.205Z,39.73
2019-01-04T23:03:48.230Z,39.40
2019-01-04T23:06:49.443Z,39.70
2019-01-04T23:09:50.382Z,39.70
2019-01-04T23:12:51.110Z,40.90
2019-01-04T23:15:55.075Z,39.10
2019-01-04T23:18:55.987Z,38.87
2019-01-04T23:21:56.893Z,40.47
2019-01-04T23:24:58.106Z,39.17
2019-01-04T23:28:02.271Z,38.77
2019-01-04T23:31:03.487Z,40.67
2019-01-04T23:34:05.218Z,39.20
2019-01-04T23:37:06.122Z,38.87
2019-01-04T23:40:06.798Z,40.60
2019-01-04T23:43:10.498Z,40.00
2019-01-04T23:46:10.939Z,39.97
2019-01-04T23:49:12.002Z,38.03
2019-01-04T23:52:13.160Z,39.73
2019-01-04T23:55:13.966Z,38.60
2019-01-04T23:58:15.827Z,39.43
